sensor_id;sensor_type;location;lat;lon;timestamp;temperature;humidity
7216;DHT22;3649;48.798;9.798;2023-02-27T00:00:16;3.80;98.40
7216;DHT22;3649;48.798;9.798;2023-02-27T00:02:48;3.90;98.40
7216;DHT22;3649;48.798;9.798;2023-02-27T00:05:15;3.80;98.40
7216;DHT22;3649;48.798;9.798;2023-02-27T00:07:43;3.80;98.60
7216;DHT22;3649;48.798;9.798;2023-02-27T00:10:11;3.80;98.60
7216;DHT22;3649;48.798;9.798;2023-02-27T00:12:38;3.80;98.60
7216;DHT22;3649;48.798;9.798;2023-02-27T00:15:05;3.90;98.60
7216;DHT22;3649;48.798;9.798;2023-02-27T00:17:33;3.90;98.60
7216;DHT22;3649;48.798;9.798;2023-02-27T00:20:00;4.00;98.50
7216;DHT22;3649;48.798;9.798;2023-02-27T00:22:26;3.90;98.40
7216;DHT22;3649;48.798;9.798;2023-02-27T00:24:53;3.80;98.60
7216;DHT22;3649;48.798;9.798;2023-02-27T00:27:20;3.80;98.60
7216;DHT22;3649;48.798;9.798;2023-02-27T00:29:47;3.80;98.60
7216;DHT22;3649;48.798;9.798;2023-02-27T00:32:14;3.80;98.60
7216;DHT22;3649;48.798;9.798;2023-02-27T00:34:41;3.80;98.70
7216;DHT22;3649;48.798;9.798;2023-02-27T00:37:08;3.80;98.60
7216;DHT22;3649;48.798;9.798;2023-02-27T00:39:34;3.70;98.70
7216;DHT22;3649;48.798;9.798;2023-02-27T00:42:01;3.70;98.70
7216;DHT22;3649;48.798;9.798;2023-02-27T00:44:28;3.80;98.70
7216;DHT22;3649;48.798;9.798;2023-02-27T00:46:55;3.80;98.80
7216;DHT22;3649;48.798;9.798;2023-02-27T00:49:21;3.80;98.70
7216;DHT22;3649;48.798;9.798;2023-02-27T00:51:48;3.70;98.70
7216;DHT22;3649;48.798;9.798;2023-02-27T00:54:15;3.80;98.80
7216;DHT22;3649;48.798;9.798;2023-02-27T00:56:42;3.80;98.80
7216;DHT22;3649;48.798;9.798;2023-02-27T00:59:08;3.80;98.80
7216;DHT22;3649;48.798;9.798;2023-02-27T01:01:35;3.80;98.80
7216;DHT22;3649;48.798;9.798;2023-02-27T01:04:02;3.80;98.70
7216;DHT22;3649;48.798;9.798;2023-02-27T01:06:31;3.70;98.90
7216;DHT22;3649;48.798;9.798;2023-02-27T01:08:58;3.70;98.90
7216;DHT22;3649;48.798;9.798;2023-02-27T01:11:25;3.70;99.00
7216;DHT22;3649;48.798;9.798;2023-02-27T01:13:52;3.70;99.00
7216;DHT22;3649;48.798;9.798;2023-02-27T01:16:19;3.70;99.10
7216;DHT22;3649;48.798;9.798;2023-02-27T01:18:46;3.70;98.90
7216;DHT22;3649;48.798;9.798;2023-02-27T01:21:12;3.70;99.10
7216;DHT22;3649;48.798;9.798;2023-02-27T01:23:39;3.70;99.10
7216;DHT22;3649;48.798;9.798;2023-02-27T01:26:06;3.70;99.10
7216;DHT22;3649;48.798;9.798;2023-02-27T01:28:33;3.70;99.20
7216;DHT22;3649;48.798;9.798;2023-02-27T01:31:00;3.60;99.20
7216;DHT22;3649;48.798;9.798;2023-02-27T01:33:27;3.60;99.20
7216;DHT22;3649;48.798;9.798;2023-02-27T01:35:54;3.60;99.30
7216;DHT22;3649;48.798;9.798;2023-02-27T01:38:21;3.60;99.30
7216;DHT22;3649;48.798;9.798;2023-02-27T01:40:47;3.60;99.70
7216;DHT22;3649;48.798;9.798;2023-02-27T01:43:20;3.60;99.50
7216;DHT22;3649;48.798;9.798;2023-02-27T01:45:48;3.60;99.40
7216;DHT22;3649;48.798;9.798;2023-02-27T01:53:24;3.60;99.40
7216;DHT22;3649;48.798;9.798;2023-02-27T01:55:54;3.50;99.50
7216;DHT22;3649;48.798;9.798;2023-02-27T01:58:23;3.50;99.60
7216;DHT22;3649;48.798;9.798;2023-02-27T02:00:52;3.40;99.60
7216;DHT22;3649;48.798;9.798;2023-02-27T02:03:29;3.40;99.80
7216;DHT22;3649;48.798;9.798;2023-02-27T02:05:58;3.40;99.80
7216;DHT22;3649;48.798;9.798;2023-02-27T02:08:29;3.50;99.80
7216;DHT22;3649;48.798;9.798;2023-02-27T02:10:59;3.50;99.70
7216;DHT22;3649;48.798;9.798;2023-02-27T02:13:26;3.50;99.70
7216;DHT22;3649;48.798;9.798;2023-02-27T02:16:12;3.60;99.70
7216;DHT22;3649;48.798;9.798;2023-02-27T02:27:57;3.50;99.90
7216;DHT22;3649;48.798;9.798;2023-02-27T02:39:01;3.40;99.90
7216;DHT22;3649;48.798;9.798;2023-02-27T02:41:39;3.40;99.90
7216;DHT22;3649;48.798;9.798;2023-02-27T02:44:21;3.40;99.90
7216;DHT22;3649;48.798;9.798;2023-02-27T02:47:03;3.40;99.90
7216;DHT22;3649;48.798;9.798;2023-02-27T02:49:50;3.40;99.90
7216;DHT22;3649;48.798;9.798;2023-02-27T02:52:26;3.30;99.90
7216;DHT22;3649;48.798;9.798;2023-02-27T02:55:05;3.30;99.90
7216;DHT22;3649;48.798;9.798;2023-02-27T02:57:44;3.40;99.90
7216;DHT22;3649;48.798;9.798;2023-02-27T03:00:17;3.40;99.90
7216;DHT22;3649;48.798;9.798;2023-02-27T03:02:50;3.40;99.90
7216;DHT22;3649;48.798;9.798;2023-02-27T03:05:25;3.30;99.90
7216;DHT22;3649;48.798;9.798;2023-02-27T03:07:57;3.30;99.90
7216;DHT22;3649;48.798;9.798;2023-02-27T03:10:33;3.20;99.90
7216;DHT22;3649;48.798;9.798;2023-02-27T03:13:06;3.20;99.90
7216;DHT22;3649;48.798;9.798;2023-02-27T03:15:47;3.20;99.90
7216;DHT22;3649;48.798;9.798;2023-02-27T03:18:24;3.10;99.90
7216;DHT22;3649;48.798;9.798;2023-02-27T03:21:00;3.10;99.90
7216;DHT22;3649;48.798;9.798;2023-02-27T03:23:45;3.00;99.90
7216;DHT22;3649;48.798;9.798;2023-02-27T03:26:19;3.20;99.90
7216;DHT22;3649;48.798;9.798;2023-02-27T03:29:03;3.20;99.90
7216;DHT22;3649;48.798;9.798;2023-02-27T03:31:43;3.20;99.90
7216;DHT22;3649;48.798;9.798;2023-02-27T03:34:18;3.20;99.90
7216;DHT22;3649;48.798;9.798;2023-02-27T03:39:47;3.20;99.90
7216;DHT22;3649;48.798;9.798;2023-02-27T03:47:24;3.20;99.90
7216;DHT22;3649;48.798;9.798;2023-02-27T03:49:51;3.10;99.90
7216;DHT22;3649;48.798;9.798;2023-02-27T03:52:19;3.20;99.90
7216;DHT22;3649;48.798;9.798;2023-02-27T03:54:56;3.20;99.90
7216;DHT22;3649;48.798;9.798;2023-02-27T03:57:24;3.20;99.90
7216;DHT22;3649;48.798;9.798;2023-02-27T03:59:50;3.10;99.90
7216;DHT22;3649;48.798;9.798;2023-02-27T04:02:19;3.10;99.90
7216;DHT22;3649;48.798;9.798;2023-02-27T04:04:46;3.10;99.90
7216;DHT22;3649;48.798;9.798;2023-02-27T04:12:36;3.20;99.90
7216;DHT22;3649;48.798;9.798;2023-02-27T04:17:59;3.20;99.90
7216;DHT22;3649;48.798;9.798;2023-02-27T04:23:05;3.10;99.90
7216;DHT22;3649;48.798;9.798;2023-02-27T04:25:40;3.00;99.90
7216;DHT22;3649;48.798;9.798;2023-02-27T04:33:58;3.10;99.90
7216;DHT22;3649;48.798;9.798;2023-02-27T04:36:59;3.00;99.90
7216;DHT22;3649;48.798;9.798;2023-02-27T04:39:32;3.10;99.90
7216;DHT22;3649;48.798;9.798;2023-02-27T04:42:06;3.10;99.90
7216;DHT22;3649;48.798;9.798;2023-02-27T04:44:35;3.10;99.90
7216;DHT22;3649;48.798;9.798;2023-02-27T04:47:05;3.10;99.90
7216;DHT22;3649;48.798;9.798;2023-02-27T04:49:47;3.20;99.90
7216;DHT22;3649;48.798;9.798;2023-02-27T04:52:26;3.10;99.90
7216;DHT22;3649;48.798;9.798;2023-02-27T04:57:41;3.00;99.90
7216;DHT22;3649;48.798;9.798;2023-02-27T05:00:11;3.10;99.90
7216;DHT22;3649;48.798;9.798;2023-02-27T05:02:43;3.10;99.90
7216;DHT22;3649;48.798;9.798;2023-02-27T05:05:15;3.10;99.90
7216;DHT22;3649;48.798;9.798;2023-02-27T05:07:55;3.00;99.90
7216;DHT22;3649;48.798;9.798;2023-02-27T05:13:14;3.00;99.90
7216;DHT22;3649;48.798;9.798;2023-02-27T05:15:46;3.00;99.90
7216;DHT22;3649;48.798;9.798;2023-02-27T05:18:16;3.00;99.90
7216;DHT22;3649;48.798;9.798;2023-02-27T05:23:49;3.00;99.90
7216;DHT22;3649;48.798;9.798;2023-02-27T05:26:44;2.90;99.90
7216;DHT22;3649;48.798;9.798;2023-02-27T05:32:44;3.00;99.90
7216;DHT22;3649;48.798;9.798;2023-02-27T05:35:23;3.10;99.90
7216;DHT22;3649;48.798;9.798;2023-02-27T05:38:14;3.10;99.90
7216;DHT22;3649;48.798;9.798;2023-02-27T05:40:50;3.10;99.90
7216;DHT22;3649;48.798;9.798;2023-02-27T05:43:28;3.10;99.90
7216;DHT22;3649;48.798;9.798;2023-02-27T05:46:02;3.00;99.90
7216;DHT22;3649;48.798;9.798;2023-02-27T05:48:44;3.00;99.90
7216;DHT22;3649;48.798;9.798;2023-02-27T05:51:13;2.90;99.90
7216;DHT22;3649;48.798;9.798;2023-02-27T05:53:45;2.80;99.90
7216;DHT22;3649;48.798;9.798;2023-02-27T05:56:15;2.80;99.90
7216;DHT22;3649;48.798;9.798;2023-02-27T05:58:50;2.80;99.90
7216;DHT22;3649;48.798;9.798;2023-02-27T06:01:17;2.80;99.90
7216;DHT22;3649;48.798;9.798;2023-02-27T06:03:44;2.80;99.90
7216;DHT22;3649;48.798;9.798;2023-02-27T06:06:14;2.80;99.90
7216;DHT22;3649;48.798;9.798;2023-02-27T06:08:42;2.80;99.90
7216;DHT22;3649;48.798;9.798;2023-02-27T06:11:09;2.90;99.90
7216;DHT22;3649;48.798;9.798;2023-02-27T06:13:36;3.00;99.90
7216;DHT22;3649;48.798;9.798;2023-02-27T06:16:09;3.00;99.90
7216;DHT22;3649;48.798;9.798;2023-02-27T06:18:36;3.00;99.90
7216;DHT22;3649;48.798;9.798;2023-02-27T06:21:03;3.10;99.90
7216;DHT22;3649;48.798;9.798;2023-02-27T06:23:30;3.00;99.90
7216;DHT22;3649;48.798;9.798;2023-02-27T06:25:57;3.00;99.90
7216;DHT22;3649;48.798;9.798;2023-02-27T06:28:24;2.90;99.90
7216;DHT22;3649;48.798;9.798;2023-02-27T06:30:54;2.90;99.90
7216;DHT22;3649;48.798;9.798;2023-02-27T06:33:23;3.00;99.90
7216;DHT22;3649;48.798;9.798;2023-02-27T06:35:51;3.00;99.90
7216;DHT22;3649;48.798;9.798;2023-02-27T06:38:18;3.00;99.90
7216;DHT22;3649;48.798;9.798;2023-02-27T06:40:45;3.00;99.90
7216;DHT22;3649;48.798;9.798;2023-02-27T06:43:12;3.00;99.90
7216;DHT22;3649;48.798;9.798;2023-02-27T06:45:40;3.60;99.90
7216;DHT22;3649;48.798;9.798;2023-02-27T06:48:07;2.90;99.90
7216;DHT22;3649;48.798;9.798;2023-02-27T06:50:34;2.90;99.90
7216;DHT22;3649;48.798;9.798;2023-02-27T06:53:01;2.90;99.90
7216;DHT22;3649;48.798;9.798;2023-02-27T06:55:29;2.40;99.90
7216;DHT22;3649;48.798;9.798;2023-02-27T06:57:55;3.00;99.90
7216;DHT22;3649;48.798;9.798;2023-02-27T07:00:22;3.00;99.90
7216;DHT22;3649;48.798;9.798;2023-02-27T07:02:49;3.00;99.90
7216;DHT22;3649;48.798;9.798;2023-02-27T07:05:16;3.00;99.90
7216;DHT22;3649;48.798;9.798;2023-02-27T07:07:43;3.10;99.90
7216;DHT22;3649;48.798;9.798;2023-02-27T07:10:12;3.20;99.90
7216;DHT22;3649;48.798;9.798;2023-02-27T07:12:39;3.20;99.90
7216;DHT22;3649;48.798;9.798;2023-02-27T07:15:09;3.30;99.90
7216;DHT22;3649;48.798;9.798;2023-02-27T07:17:36;3.40;99.90
7216;DHT22;3649;48.798;9.798;2023-02-27T07:20:05;3.40;99.90
7216;DHT22;3649;48.798;9.798;2023-02-27T07:22:32;3.40;99.90
7216;DHT22;3649;48.798;9.798;2023-02-27T07:24:59;3.40;99.90
7216;DHT22;3649;48.798;9.798;2023-02-27T07:27:26;3.90;99.90
7216;DHT22;3649;48.798;9.798;2023-02-27T07:29:53;3.50;99.90
7216;DHT22;3649;48.798;9.798;2023-02-27T07:32:20;3.50;99.90
7216;DHT22;3649;48.798;9.798;2023-02-27T07:34:47;3.50;99.90
7216;DHT22;3649;48.798;9.798;2023-02-27T07:37:14;4.80;99.90
7216;DHT22;3649;48.798;9.798;2023-02-27T07:39:41;3.60;99.90
7216;DHT22;3649;48.798;9.798;2023-02-27T07:42:08;3.60;99.90
7216;DHT22;3649;48.798;9.798;2023-02-27T07:44:35;3.60;99.90
7216;DHT22;3649;48.798;9.798;2023-02-27T07:47:02;3.60;99.80
7216;DHT22;3649;48.798;9.798;2023-02-27T07:49:29;3.70;99.70
7216;DHT22;3649;48.798;9.798;2023-02-27T07:51:56;3.90;99.70
7216;DHT22;3649;48.798;9.798;2023-02-27T07:54:23;4.00;99.50
7216;DHT22;3649;48.798;9.798;2023-02-27T07:56:50;4.10;99.40
7216;DHT22;3649;48.798;9.798;2023-02-27T07:59:17;4.30;99.20
7216;DHT22;3649;48.798;9.798;2023-02-27T08:01:43;4.30;99.00
7216;DHT22;3649;48.798;9.798;2023-02-27T08:04:10;4.40;99.00
7216;DHT22;3649;48.798;9.798;2023-02-27T08:06:38;4.50;98.90
7216;DHT22;3649;48.798;9.798;2023-02-27T08:09:05;4.50;98.70
7216;DHT22;3649;48.798;9.798;2023-02-27T08:11:32;4.60;98.60
7216;DHT22;3649;48.798;9.798;2023-02-27T08:13:59;4.70;98.60
7216;DHT22;3649;48.798;9.798;2023-02-27T08:16:28;4.80;98.60
7216;DHT22;3649;48.798;9.798;2023-02-27T08:18:57;4.80;98.50
7216;DHT22;3649;48.798;9.798;2023-02-27T08:21:26;5.00;98.40
7216;DHT22;3649;48.798;9.798;2023-02-27T08:23:54;4.80;98.40
7216;DHT22;3649;48.798;9.798;2023-02-27T08:26:21;4.90;98.40
7216;DHT22;3649;48.798;9.798;2023-02-27T08:28:48;5.00;98.30
7216;DHT22;3649;48.798;9.798;2023-02-27T08:31:15;5.00;98.20
7216;DHT22;3649;48.798;9.798;2023-02-27T08:33:42;4.40;97.90
7216;DHT22;3649;48.798;9.798;2023-02-27T08:36:09;5.10;98.20
7216;DHT22;3649;48.798;9.798;2023-02-27T08:38:36;5.70;98.40
7216;DHT22;3649;48.798;9.798;2023-02-27T08:41:03;5.30;98.10
7216;DHT22;3649;48.798;9.798;2023-02-27T08:43:30;5.30;97.90
7216;DHT22;3649;48.798;9.798;2023-02-27T08:45:57;5.20;97.80
7216;DHT22;3649;48.798;9.798;2023-02-27T08:48:23;5.20;97.80
7216;DHT22;3649;48.798;9.798;2023-02-27T08:50:51;5.10;97.70
7216;DHT22;3649;48.798;9.798;2023-02-27T08:53:18;5.20;97.90
7216;DHT22;3649;48.798;9.798;2023-02-27T08:55:48;5.30;97.90
7216;DHT22;3649;48.798;9.798;2023-02-27T08:58:17;5.40;97.90
7216;DHT22;3649;48.798;9.798;2023-02-27T09:00:44;5.50;97.80
7216;DHT22;3649;48.798;9.798;2023-02-27T09:03:11;5.40;97.60
7216;DHT22;3649;48.798;9.798;2023-02-27T09:05:39;5.40;97.60
7216;DHT22;3649;48.798;9.798;2023-02-27T09:08:07;5.30;97.50
7216;DHT22;3649;48.798;9.798;2023-02-27T09:10:35;5.40;97.40
7216;DHT22;3649;48.798;9.798;2023-02-27T09:13:02;5.40;97.30
7216;DHT22;3649;48.798;9.798;2023-02-27T09:15:29;5.40;97.20
7216;DHT22;3649;48.798;9.798;2023-02-27T09:17:58;5.30;97.10
7216;DHT22;3649;48.798;9.798;2023-02-27T09:20:29;5.20;97.10
7216;DHT22;3649;48.798;9.798;2023-02-27T09:22:57;5.20;97.30
7216;DHT22;3649;48.798;9.798;2023-02-27T09:25:25;5.20;97.50
7216;DHT22;3649;48.798;9.798;2023-02-27T09:27:52;5.30;97.40
7216;DHT22;3649;48.798;9.798;2023-02-27T09:30:19;5.40;97.30
7216;DHT22;3649;48.798;9.798;2023-02-27T09:32:46;5.50;97.10
7216;DHT22;3649;48.798;9.798;2023-02-27T09:35:13;5.50;97.20
7216;DHT22;3649;48.798;9.798;2023-02-27T09:37:45;5.50;96.90
7216;DHT22;3649;48.798;9.798;2023-02-27T09:42:49;5.70;97.10
7216;DHT22;3649;48.798;9.798;2023-02-27T09:45:23;5.80;96.80
7216;DHT22;3649;48.798;9.798;2023-02-27T09:50:46;5.80;96.70
7216;DHT22;3649;48.798;9.798;2023-02-27T09:55:46;5.70;96.30
7216;DHT22;3649;48.798;9.798;2023-02-27T10:00:48;5.70;95.70
7216;DHT22;3649;48.798;9.798;2023-02-27T10:06:20;5.80;95.70
7216;DHT22;3649;48.798;9.798;2023-02-27T10:09:04;5.90;95.70
7216;DHT22;3649;48.798;9.798;2023-02-27T10:14:38;5.90;95.60
7216;DHT22;3649;48.798;9.798;2023-02-27T10:17:24;5.90;95.30
7216;DHT22;3649;48.798;9.798;2023-02-27T10:19:52;5.90;94.80
7216;DHT22;3649;48.798;9.798;2023-02-27T10:22:32;5.80;94.40
7216;DHT22;3649;48.798;9.798;2023-02-27T10:25:15;5.80;94.40
7216;DHT22;3649;48.798;9.798;2023-02-27T10:28:04;5.80;94.50
7216;DHT22;3649;48.798;9.798;2023-02-27T10:30:34;5.90;94.50
7216;DHT22;3649;48.798;9.798;2023-02-27T10:33:12;5.90;94.60
7216;DHT22;3649;48.798;9.798;2023-02-27T10:35:45;5.90;94.60
7216;DHT22;3649;48.798;9.798;2023-02-27T10:38:20;6.00;94.60
7216;DHT22;3649;48.798;9.798;2023-02-27T10:40:54;6.10;94.30
7216;DHT22;3649;48.798;9.798;2023-02-27T10:43:21;6.10;93.90
7216;DHT22;3649;48.798;9.798;2023-02-27T10:45:48;6.20;94.30
7216;DHT22;3649;48.798;9.798;2023-02-27T10:48:16;6.10;93.80
7216;DHT22;3649;48.798;9.798;2023-02-27T10:50:46;6.10;93.90
7216;DHT22;3649;48.798;9.798;2023-02-27T10:53:26;6.20;93.90
7216;DHT22;3649;48.798;9.798;2023-02-27T10:56:02;6.10;93.50
7216;DHT22;3649;48.798;9.798;2023-02-27T10:58:32;6.20;93.50
7216;DHT22;3649;48.798;9.798;2023-02-27T11:01:06;6.10;93.50
7216;DHT22;3649;48.798;9.798;2023-02-27T11:03:41;6.20;93.30
7216;DHT22;3649;48.798;9.798;2023-02-27T11:06:22;5.00;92.70
7216;DHT22;3649;48.798;9.798;2023-02-27T11:09:18;6.20;93.20
7216;DHT22;3649;48.798;9.798;2023-02-27T11:11:47;6.10;93.40
7216;DHT22;3649;48.798;9.798;2023-02-27T11:14:37;6.10;93.50
7216;DHT22;3649;48.798;9.798;2023-02-27T11:17:41;6.30;93.50
7216;DHT22;3649;48.798;9.798;2023-02-27T11:20:34;6.30;93.50
7216;DHT22;3649;48.798;9.798;2023-02-27T11:23:05;6.30;93.10
7216;DHT22;3649;48.798;9.798;2023-02-27T11:25:32;6.40;93.30
7216;DHT22;3649;48.798;9.798;2023-02-27T11:30:58;6.40;93.10
7216;DHT22;3649;48.798;9.798;2023-02-27T11:33:29;6.40;93.10
7216;DHT22;3649;48.798;9.798;2023-02-27T11:35:57;6.40;93.40
7216;DHT22;3649;48.798;9.798;2023-02-27T11:38:29;6.40;93.30
7216;DHT22;3649;48.798;9.798;2023-02-27T11:41:06;6.30;93.20
7216;DHT22;3649;48.798;9.798;2023-02-27T11:43:48;6.30;93.40
7216;DHT22;3649;48.798;9.798;2023-02-27T11:46:22;6.40;94.10
7216;DHT22;3649;48.798;9.798;2023-02-27T11:49:29;6.50;93.50
7216;DHT22;3649;48.798;9.798;2023-02-27T11:52:03;6.60;93.20
7216;DHT22;3649;48.798;9.798;2023-02-27T11:54:44;6.50;93.50
7216;DHT22;3649;48.798;9.798;2023-02-27T11:57:27;6.50;93.60
7216;DHT22;3649;48.798;9.798;2023-02-27T12:00:00;6.40;93.20
7216;DHT22;3649;48.798;9.798;2023-02-27T12:05:24;6.40;93.60
7216;DHT22;3649;48.798;9.798;2023-02-27T12:08:02;6.50;94.00
7216;DHT22;3649;48.798;9.798;2023-02-27T12:13:42;6.60;94.00
7216;DHT22;3649;48.798;9.798;2023-02-27T12:21:44;6.50;93.50
7216;DHT22;3649;48.798;9.798;2023-02-27T12:24:24;6.50;93.50
7216;DHT22;3649;48.798;9.798;2023-02-27T12:27:40;6.50;93.70
7216;DHT22;3649;48.798;9.798;2023-02-27T12:32:49;6.70;94.20
7216;DHT22;3649;48.798;9.798;2023-02-27T12:35:31;6.70;93.90
7216;DHT22;3649;48.798;9.798;2023-02-27T12:38:00;6.70;93.50
7216;DHT22;3649;48.798;9.798;2023-02-27T12:40:55;6.80;93.40
7216;DHT22;3649;48.798;9.798;2023-02-27T12:43:47;6.70;93.30
7216;DHT22;3649;48.798;9.798;2023-02-27T12:46:29;6.70;93.10
7216;DHT22;3649;48.798;9.798;2023-02-27T12:54:53;6.60;93.20
7216;DHT22;3649;48.798;9.798;2023-02-27T13:14:12;6.60;93.30
7216;DHT22;3649;48.798;9.798;2023-02-27T13:16:43;6.60;93.10
7216;DHT22;3649;48.798;9.798;2023-02-27T13:19:23;6.60;93.10
7216;DHT22;3649;48.798;9.798;2023-02-27T13:24:29;6.50;93.00
7216;DHT22;3649;48.798;9.798;2023-02-27T13:27:06;7.20;93.30
7216;DHT22;3649;48.798;9.798;2023-02-27T13:29:39;6.50;93.00
7216;DHT22;3649;48.798;9.798;2023-02-27T13:32:21;6.50;92.50
7216;DHT22;3649;48.798;9.798;2023-02-27T13:35:20;6.40;92.40
7216;DHT22;3649;48.798;9.798;2023-02-27T13:37:57;6.40;92.50
7216;DHT22;3649;48.798;9.798;2023-02-27T13:40:36;5.40;92.20
7216;DHT22;3649;48.798;9.798;2023-02-27T13:43:33;6.50;92.30
7216;DHT22;3649;48.798;9.798;2023-02-27T13:46:24;6.50;92.60
7216;DHT22;3649;48.798;9.798;2023-02-27T13:59:33;6.70;93.20
7216;DHT22;3649;48.798;9.798;2023-02-27T14:04:58;6.70;92.60
7216;DHT22;3649;48.798;9.798;2023-02-27T14:07:32;6.70;92.50
7216;DHT22;3649;48.798;9.798;2023-02-27T14:10:05;6.70;91.70
7216;DHT22;3649;48.798;9.798;2023-02-27T14:12:40;6.70;91.70
7216;DHT22;3649;48.798;9.798;2023-02-27T14:17:53;6.60;91.60
7216;DHT22;3649;48.798;9.798;2023-02-27T14:23:16;6.50;92.10
7216;DHT22;3649;48.798;9.798;2023-02-27T14:28:35;6.40;92.90
7216;DHT22;3649;48.798;9.798;2023-02-27T14:31:21;6.50;92.70
7216;DHT22;3649;48.798;9.798;2023-02-27T14:33:51;6.50;92.90
7216;DHT22;3649;48.798;9.798;2023-02-27T14:36:22;6.50;93.00
7216;DHT22;3649;48.798;9.798;2023-02-27T14:38:54;6.60;93.30
7216;DHT22;3649;48.798;9.798;2023-02-27T14:41:48;6.60;93.30
7216;DHT22;3649;48.798;9.798;2023-02-27T14:44:23;6.70;92.90
7216;DHT22;3649;48.798;9.798;2023-02-27T14:46:52;6.60;92.60
7216;DHT22;3649;48.798;9.798;2023-02-27T14:49:25;6.60;93.00
7216;DHT22;3649;48.798;9.798;2023-02-27T14:51:53;6.40;92.50
7216;DHT22;3649;48.798;9.798;2023-02-27T14:54:23;6.60;92.60
7216;DHT22;3649;48.798;9.798;2023-02-27T14:56:59;6.60;91.80
7216;DHT22;3649;48.798;9.798;2023-02-27T15:01:57;6.40;91.30
7216;DHT22;3649;48.798;9.798;2023-02-27T15:04:29;6.40;91.30
7216;DHT22;3649;48.798;9.798;2023-02-27T15:06:58;6.40;91.30
7216;DHT22;3649;48.798;9.798;2023-02-27T15:09:34;6.40;91.50
7216;DHT22;3649;48.798;9.798;2023-02-27T15:12:03;6.30;92.00
7216;DHT22;3649;48.798;9.798;2023-02-27T15:14:36;6.20;92.40
7216;DHT22;3649;48.798;9.798;2023-02-27T15:17:15;6.30;92.70
7216;DHT22;3649;48.798;9.798;2023-02-27T15:19:51;6.30;92.80
7216;DHT22;3649;48.798;9.798;2023-02-27T15:22:21;6.20;92.40
7216;DHT22;3649;48.798;9.798;2023-02-27T15:25:04;6.20;92.40
7216;DHT22;3649;48.798;9.798;2023-02-27T15:27:34;6.10;92.40
7216;DHT22;3649;48.798;9.798;2023-02-27T15:30:03;6.10;92.10
7216;DHT22;3649;48.798;9.798;2023-02-27T15:32:34;6.20;92.10
7216;DHT22;3649;48.798;9.798;2023-02-27T15:37:53;6.20;92.20
7216;DHT22;3649;48.798;9.798;2023-02-27T15:40:23;6.30;92.40
7216;DHT22;3649;48.798;9.798;2023-02-27T15:42:51;6.30;91.90
7216;DHT22;3649;48.798;9.798;2023-02-27T15:45:21;6.30;91.90
7216;DHT22;3649;48.798;9.798;2023-02-27T15:47:48;6.10;91.40
7216;DHT22;3649;48.798;9.798;2023-02-27T15:55:37;6.20;91.70
7216;DHT22;3649;48.798;9.798;2023-02-27T16:00:56;6.10;91.70
7216;DHT22;3649;48.798;9.798;2023-02-27T16:03:29;6.10;91.30
7216;DHT22;3649;48.798;9.798;2023-02-27T16:05:59;6.10;91.60
7216;DHT22;3649;48.798;9.798;2023-02-27T16:08:28;6.10;91.80
7216;DHT22;3649;48.798;9.798;2023-02-27T16:10:56;6.00;91.70
7216;DHT22;3649;48.798;9.798;2023-02-27T16:18:48;5.80;91.80
7216;DHT22;3649;48.798;9.798;2023-02-27T16:21:21;5.80;91.90
7216;DHT22;3649;48.798;9.798;2023-02-27T16:23:48;5.90;91.80
7216;DHT22;3649;48.798;9.798;2023-02-27T16:28:57;5.90;91.60
7216;DHT22;3649;48.798;9.798;2023-02-27T16:31:34;5.90;91.70
7216;DHT22;3649;48.798;9.798;2023-02-27T16:36:41;5.70;91.40
7216;DHT22;3649;48.798;9.798;2023-02-27T16:39:14;5.80;91.30
7216;DHT22;3649;48.798;9.798;2023-02-27T16:41:40;5.70;91.30
7216;DHT22;3649;48.798;9.798;2023-02-27T16:44:08;5.80;91.50
7216;DHT22;3649;48.798;9.798;2023-02-27T16:46:35;5.80;91.40
7216;DHT22;3649;48.798;9.798;2023-02-27T16:49:02;5.80;91.30
7216;DHT22;3649;48.798;9.798;2023-02-27T16:51:45;5.80;91.40
7216;DHT22;3649;48.798;9.798;2023-02-27T16:54:12;5.80;91.30
7216;DHT22;3649;48.798;9.798;2023-02-27T16:56:40;5.80;91.30
7216;DHT22;3649;48.798;9.798;2023-02-27T17:01:51;5.70;91.40
7216;DHT22;3649;48.798;9.798;2023-02-27T17:04:18;5.80;91.50
7216;DHT22;3649;48.798;9.798;2023-02-27T17:06:53;6.30;91.60
7216;DHT22;3649;48.798;9.798;2023-02-27T17:09:20;5.80;91.40
7216;DHT22;3649;48.798;9.798;2023-02-27T17:11:47;5.80;91.40
7216;DHT22;3649;48.798;9.798;2023-02-27T17:14:14;5.80;91.50
7216;DHT22;3649;48.798;9.798;2023-02-27T17:16:41;6.20;91.50
7216;DHT22;3649;48.798;9.798;2023-02-27T17:19:08;5.70;91.30
7216;DHT22;3649;48.798;9.798;2023-02-27T17:21:35;5.70;91.50
7216;DHT22;3649;48.798;9.798;2023-02-27T17:24:03;5.70;91.50
7216;DHT22;3649;48.798;9.798;2023-02-27T17:26:33;5.70;91.40
7216;DHT22;3649;48.798;9.798;2023-02-27T17:29:01;5.60;91.70
7216;DHT22;3649;48.798;9.798;2023-02-27T17:31:28;5.50;91.70
7216;DHT22;3649;48.798;9.798;2023-02-27T17:34:02;5.50;91.70
7216;DHT22;3649;48.798;9.798;2023-02-27T17:36:29;5.60;91.80
7216;DHT22;3649;48.798;9.798;2023-02-27T17:38:58;5.70;91.60
7216;DHT22;3649;48.798;9.798;2023-02-27T17:41:29;5.70;91.50
7216;DHT22;3649;48.798;9.798;2023-02-27T17:43:57;5.70;91.30
7216;DHT22;3649;48.798;9.798;2023-02-27T17:46:25;5.70;91.40
7216;DHT22;3649;48.798;9.798;2023-02-27T17:48:54;5.60;91.30
7216;DHT22;3649;48.798;9.798;2023-02-27T17:51:27;5.50;91.30
7216;DHT22;3649;48.798;9.798;2023-02-27T17:53:54;5.50;91.20
7216;DHT22;3649;48.798;9.798;2023-02-27T17:56:21;7.60;91.90
7216;DHT22;3649;48.798;9.798;2023-02-27T17:58:47;5.50;91.20
7216;DHT22;3649;48.798;9.798;2023-02-27T18:01:17;5.50;91.20
7216;DHT22;3649;48.798;9.798;2023-02-27T18:03:46;5.50;91.30
7216;DHT22;3649;48.798;9.798;2023-02-27T18:06:13;5.50;91.20
7216;DHT22;3649;48.798;9.798;2023-02-27T18:08:40;5.50;91.10
7216;DHT22;3649;48.798;9.798;2023-02-27T18:11:09;5.40;91.20
7216;DHT22;3649;48.798;9.798;2023-02-27T18:13:37;5.50;91.30
7216;DHT22;3649;48.798;9.798;2023-02-27T18:16:05;5.50;91.30
7216;DHT22;3649;48.798;9.798;2023-02-27T18:18:37;5.40;91.20
7216;DHT22;3649;48.798;9.798;2023-02-27T18:21:09;5.40;91.20
7216;DHT22;3649;48.798;9.798;2023-02-27T18:23:37;5.30;91.20
7216;DHT22;3649;48.798;9.798;2023-02-27T18:26:05;5.20;91.30
7216;DHT22;3649;48.798;9.798;2023-02-27T18:28:33;5.20;91.20
7216;DHT22;3649;48.798;9.798;2023-02-27T18:31:00;5.10;91.40
7216;DHT22;3649;48.798;9.798;2023-02-27T18:33:27;5.20;91.60
7216;DHT22;3649;48.798;9.798;2023-02-27T18:35:54;5.20;91.60
7216;DHT22;3649;48.798;9.798;2023-02-27T18:38:21;5.30;91.40
7216;DHT22;3649;48.798;9.798;2023-02-27T18:40:48;5.30;91.30
7216;DHT22;3649;48.798;9.798;2023-02-27T18:43:14;5.30;91.30
7216;DHT22;3649;48.798;9.798;2023-02-27T18:45:41;5.30;91.20
7216;DHT22;3649;48.798;9.798;2023-02-27T18:48:08;5.30;91.10
7216;DHT22;3649;48.798;9.798;2023-02-27T18:50:35;6.40;91.70
7216;DHT22;3649;48.798;9.798;2023-02-27T18:53:02;5.20;91.30
7216;DHT22;3649;48.798;9.798;2023-02-27T18:55:29;5.20;91.30
7216;DHT22;3649;48.798;9.798;2023-02-27T18:57:56;5.30;91.30
7216;DHT22;3649;48.798;9.798;2023-02-27T19:00:22;5.20;91.00
7216;DHT22;3649;48.798;9.798;2023-02-27T19:02:49;5.20;91.20
7216;DHT22;3649;48.798;9.798;2023-02-27T19:05:16;5.20;91.30
7216;DHT22;3649;48.798;9.798;2023-02-27T19:07:43;5.20;91.30
7216;DHT22;3649;48.798;9.798;2023-02-27T19:10:11;5.20;91.40
7216;DHT22;3649;48.798;9.798;2023-02-27T19:12:38;5.20;91.40
7216;DHT22;3649;48.798;9.798;2023-02-27T19:15:05;5.20;91.50
7216;DHT22;3649;48.798;9.798;2023-02-27T19:17:32;5.20;91.50
7216;DHT22;3649;48.798;9.798;2023-02-27T19:19:59;5.20;91.50
7216;DHT22;3649;48.798;9.798;2023-02-27T19:22:26;5.10;91.60
7216;DHT22;3649;48.798;9.798;2023-02-27T19:24:58;5.10;91.70
7216;DHT22;3649;48.798;9.798;2023-02-27T19:27:24;5.10;91.80
7216;DHT22;3649;48.798;9.798;2023-02-27T19:29:52;5.10;92.00